Scipio, Oklahoma
Current Conditions -  °F | °C
As of 2:07 PM on Friday 19 Dec 2014 (Local Time) from KMLC Reporting Station
Haze Haze  
Wind Chill: 39°   Ceiling: 500
Heat Index: 44°   Visibility: 4mi
Dew Point: 42°   Wind: 9mph
Humidity: 93%   Direction: 10°N
Pressure: 30.18"   Gusts: NA
Location:  34.9351°N, 95.8929°W
Report Text: KMLC 192007Z AUTO 01008KT 4SM BR OVC005 07/06 A3018 RMK AO2 CIG 002V010 T00670056
Loading
Personal Weather Stations






























Interactive Weather Map New forecast layout! Learn more

10-Day Weather Forecast

Advertisements
Track Severe Weather on mobile